createdAt,value
2022-11-01T00:01:53.400Z,4.77
2022-11-01T00:04:20.179Z,5.60
2022-11-01T00:06:47.115Z,6.30
2022-11-01T00:09:14.063Z,4.30
2022-11-01T00:11:40.818Z,5.03
2022-11-01T00:14:11.219Z,4.77
2022-11-01T00:16:37.998Z,4.63
2022-11-01T00:19:04.643Z,5.80
2022-11-01T00:21:31.276Z,4.90
2022-11-01T00:23:57.949Z,5.67
2022-11-01T00:26:25.169Z,5.60
2022-11-01T00:28:52.675Z,5.93
2022-11-01T00:31:20.715Z,5.87
2022-11-01T00:33:47.507Z,4.70
2022-11-01T00:36:14.414Z,4.73
2022-11-01T00:38:41.207Z,5.10
2022-11-01T00:41:08.269Z,5.00
2022-11-01T00:43:36.085Z,4.57
2022-11-01T00:46:03.719Z,6.10
2022-11-01T00:48:30.425Z,4.80
2022-11-01T00:50:57.270Z,4.47
2022-11-01T00:53:23.959Z,4.83
2022-11-01T00:55:50.700Z,5.03
2022-11-01T00:58:17.363Z,4.77
2022-11-01T01:00:44.208Z,4.60
2022-11-01T01:03:10.924Z,4.27
2022-11-01T01:05:37.604Z,5.20
2022-11-01T01:08:04.448Z,4.90
2022-11-01T01:10:31.429Z,5.00
2022-11-01T01:12:58.337Z,5.50
2022-11-01T01:15:25.238Z,4.70
2022-11-01T01:17:52.867Z,5.23
2022-11-01T01:20:20.926Z,5.40
2022-11-01T01:22:47.839Z,4.50
2022-11-01T01:25:14.583Z,4.90
2022-11-01T01:27:41.297Z,5.27
2022-11-01T01:30:08.616Z,4.90
2022-11-01T01:32:36.088Z,4.50
2022-11-01T01:35:02.872Z,4.30
2022-11-01T01:37:29.532Z,3.50
2022-11-01T01:39:56.346Z,4.00
2022-11-01T01:42:30.848Z,3.80
2022-11-01T01:44:57.440Z,3.50
2022-11-01T01:47:29.324Z,3.20
2022-11-01T01:50:19.180Z,3.70
2022-11-01T01:52:52.590Z,3.30
2022-11-01T01:55:23.492Z,3.70
2022-11-01T01:57:51.494Z,2.90
2022-11-01T02:00:18.478Z,4.03
2022-11-01T02:02:45.450Z,3.17
2022-11-01T02:05:18.265Z,3.50
2022-11-01T02:07:45.891Z,3.07
2022-11-01T02:10:14.664Z,3.37
2022-11-01T02:12:46.572Z,3.37
2022-11-01T02:15:14.214Z,3.80
2022-11-01T02:17:56.090Z,2.70
2022-11-01T02:20:37.932Z,3.80
2022-11-01T02:23:29.263Z,3.47
2022-11-01T02:26:17.556Z,3.30
2022-11-01T02:29:23.639Z,3.33
2022-11-01T02:31:58.965Z,2.60
2022-11-01T02:34:36.051Z,3.10
2022-11-01T02:37:11.502Z,3.40
2022-11-01T02:39:44.258Z,3.10
2022-11-01T02:42:23.030Z,3.00
2022-11-01T02:44:56.629Z,3.50
2022-11-01T02:47:25.109Z,3.27
2022-11-01T02:49:55.999Z,3.13
2022-11-01T02:52:25.357Z,3.80
2022-11-01T02:54:57.850Z,4.43
2022-11-01T02:57:32.864Z,4.03
2022-11-01T03:00:04.787Z,3.93
2022-11-01T03:02:41.555Z,3.50
2022-11-01T03:05:18.830Z,3.60
2022-11-01T03:07:51.275Z,2.43
2022-11-01T03:10:21.331Z,2.50
2022-11-01T03:13:09.098Z,2.60
2022-11-01T03:15:46.161Z,2.60
2022-11-01T03:18:28.441Z,3.50
2022-11-01T03:21:18.969Z,2.90
2022-11-01T03:24:08.862Z,2.97
2022-11-01T03:26:36.161Z,3.10
2022-11-01T03:29:08.251Z,3.13
2022-11-01T03:31:38.471Z,3.10
2022-11-01T03:34:14.493Z,3.30
2022-11-01T03:36:48.854Z,3.23
2022-11-01T03:39:23.612Z,2.80
2022-11-01T03:41:56.671Z,2.83
2022-11-01T03:44:23.706Z,2.60
2022-11-01T03:46:51.269Z,2.87
2022-11-01T03:49:19.865Z,2.80
2022-11-01T03:51:46.877Z,3.17
2022-11-01T03:54:13.615Z,2.93
2022-11-01T03:56:43.470Z,2.40
2022-11-01T03:59:10.916Z,2.50
2022-11-01T04:01:37.838Z,2.90
2022-11-01T04:04:04.827Z,2.93
2022-11-01T04:06:31.757Z,2.47
2022-11-01T04:08:58.503Z,2.93
2022-11-01T04:11:25.187Z,3.10
2022-11-01T04:13:51.840Z,3.17
2022-11-01T04:16:37.436Z,3.40
2022-11-01T04:19:42.670Z,2.60
2022-11-01T04:22:09.659Z,3.00
2022-11-01T04:24:36.328Z,3.10
2022-11-01T04:27:02.979Z,2.70
2022-11-01T04:29:29.590Z,2.80
2022-11-01T04:31:56.377Z,2.50
2022-11-01T04:34:42.125Z,2.77
2022-11-01T04:37:09.454Z,3.73
2022-11-01T04:39:36.093Z,2.87
2022-11-01T04:42:02.849Z,3.50
2022-11-01T04:44:29.966Z,3.70
2022-11-01T04:46:56.659Z,2.97
2022-11-01T04:49:23.414Z,2.63
2022-11-01T04:51:50.074Z,3.40
2022-11-01T04:54:16.796Z,2.97
2022-11-01T04:56:43.532Z,2.77
2022-11-01T04:59:10.208Z,2.93
2022-11-01T05:01:36.925Z,2.63
2022-11-01T05:04:03.806Z,3.43
2022-11-01T05:06:30.474Z,2.73
2022-11-01T05:08:57.148Z,3.30
2022-11-01T05:11:25.740Z,3.20
2022-11-01T05:13:52.733Z,3.33
2022-11-01T05:16:20.789Z,3.03
2022-11-01T05:18:48.447Z,2.90
2022-11-01T05:21:15.133Z,3.20
2022-11-01T05:23:41.822Z,3.30
2022-11-01T05:26:08.594Z,3.00
2022-11-01T05:28:35.244Z,3.47
2022-11-01T05:31:01.930Z,3.27
2022-11-01T05:33:28.761Z,3.27
2022-11-01T05:35:55.401Z,2.50
2022-11-01T05:38:22.061Z,3.03
2022-11-01T05:40:48.803Z,2.73
2022-11-01T05:43:15.486Z,2.60
2022-11-01T05:45:42.169Z,2.80
2022-11-01T05:48:09.333Z,2.43
2022-11-01T05:50:36.045Z,2.57
2022-11-01T05:53:07.701Z,2.37
2022-11-01T05:55:35.027Z,2.20
2022-11-01T05:58:01.915Z,2.37
2022-11-01T06:00:28.567Z,2.80
2022-11-01T06:03:00.698Z,2.10
2022-11-01T06:05:28.572Z,2.67
2022-11-01T06:07:55.623Z,3.10
2022-11-01T06:10:22.343Z,2.70
2022-11-01T06:12:48.990Z,2.50
2022-11-01T06:15:15.719Z,2.30
2022-11-01T06:17:42.380Z,2.67
2022-11-01T06:20:09.464Z,2.27
2022-11-01T06:22:36.651Z,3.17
2022-11-01T06:25:04.759Z,2.40
2022-11-01T06:27:31.716Z,2.40
2022-11-01T06:29:58.383Z,2.50
2022-11-01T06:32:25.047Z,2.00
2022-11-01T06:34:51.679Z,2.40
2022-11-01T06:37:18.325Z,2.63
2022-11-01T06:39:44.959Z,2.60
2022-11-01T06:42:11.595Z,2.80
2022-11-01T06:44:38.301Z,2.50
2022-11-01T06:47:04.982Z,3.50
2022-11-01T06:49:31.812Z,3.07
2022-11-01T06:51:58.479Z,5.17
2022-11-01T06:54:25.692Z,6.67
2022-11-01T06:56:52.434Z,4.43
2022-11-01T06:59:19.096Z,4.27
2022-11-01T07:01:45.927Z,3.63
2022-11-01T07:04:12.794Z,3.20
2022-11-01T07:06:39.695Z,3.07
2022-11-01T07:09:06.476Z,2.93
2022-11-01T07:11:33.881Z,2.63
2022-11-01T07:14:00.619Z,3.50
2022-11-01T07:16:27.639Z,3.50
2022-11-01T07:18:54.541Z,3.30
2022-11-01T07:21:21.497Z,3.80
2022-11-01T07:23:48.478Z,4.97
2022-11-01T07:26:15.292Z,4.90
2022-11-01T07:28:42.162Z,3.87
2022-11-01T07:31:08.876Z,5.40
2022-11-01T07:33:35.613Z,5.17
2022-11-01T07:36:03.269Z,4.30
2022-11-01T07:38:30.323Z,4.10
2022-11-01T07:40:57.059Z,3.10
2022-11-01T07:43:23.940Z,4.20
2022-11-01T07:45:50.748Z,5.30
2022-11-01T07:48:18.968Z,3.97
2022-11-01T07:50:46.383Z,3.87
2022-11-01T07:53:14.563Z,3.30
2022-11-01T07:55:42.229Z,2.30
2022-11-01T07:58:09.640Z,3.13
2022-11-01T08:00:36.805Z,3.40
2022-11-01T08:03:21.814Z,3.07
2022-11-01T08:05:48.631Z,2.40
2022-11-01T08:08:16.277Z,2.70
2022-11-01T08:10:43.190Z,2.80
2022-11-01T08:13:24.898Z,2.80
2022-11-01T08:15:53.149Z,3.07
2022-11-01T08:18:22.390Z,4.10
2022-11-01T08:20:49.453Z,3.73
2022-11-01T08:23:16.374Z,3.30
2022-11-01T08:25:43.698Z,2.87
2022-11-01T08:28:16.729Z,3.53
2022-11-01T08:30:44.967Z,2.87
2022-11-01T08:33:12.491Z,3.03
2022-11-01T08:35:39.636Z,3.27
2022-11-01T08:38:06.447Z,2.90
2022-11-01T08:40:33.910Z,2.97
2022-11-01T08:43:03.787Z,3.30
2022-11-01T08:45:30.647Z,4.03
2022-11-01T08:48:01.725Z,4.40
2022-11-01T08:50:28.620Z,4.30
2022-11-01T08:52:55.510Z,3.57
2022-11-01T08:55:23.118Z,3.93
2022-11-01T08:57:49.849Z,3.93
2022-11-01T09:00:17.377Z,4.30
2022-11-01T09:02:44.075Z,4.00
2022-11-01T09:05:10.765Z,3.90
2022-11-01T09:07:37.869Z,3.97
2022-11-01T09:10:05.774Z,3.90
2022-11-01T09:12:32.899Z,3.90
2022-11-01T09:14:59.598Z,4.43
2022-11-01T09:17:26.561Z,4.43
2022-11-01T09:19:53.239Z,4.57
2022-11-01T09:22:19.949Z,4.27
2022-11-01T09:24:46.816Z,4.00
2022-11-01T09:27:13.457Z,5.70
2022-11-01T09:29:40.267Z,4.93
2022-11-01T09:32:06.943Z,12.83
2022-11-01T09:34:34.200Z,10.07
2022-11-01T09:37:01.520Z,5.43
2022-11-01T09:39:28.167Z,4.77
2022-11-01T09:42:05.864Z,8.10
2022-11-01T09:44:37.340Z,11.33
2022-11-01T09:47:19.355Z,11.07
2022-11-01T09:49:48.754Z,8.47
2022-11-01T09:52:24.431Z,4.63
2022-11-01T09:54:51.456Z,4.53
2022-11-01T09:57:20.915Z,4.00
2022-11-01T10:00:04.188Z,4.50
2022-11-01T10:02:55.751Z,3.90
2022-11-01T10:05:40.099Z,5.30
2022-11-01T10:08:28.824Z,3.80
2022-11-01T10:11:01.090Z,3.60
2022-11-01T10:13:39.869Z,3.83
2022-11-01T10:16:56.233Z,3.33
2022-11-01T10:19:24.162Z,3.93
2022-11-01T10:21:54.434Z,3.70
2022-11-01T10:24:29.922Z,3.20
2022-11-01T10:27:25.074Z,3.27
2022-11-01T10:29:58.484Z,4.07
2022-11-01T10:33:06.514Z,3.80
2022-11-01T10:35:38.382Z,3.50
2022-11-01T10:38:49.544Z,3.60
2022-11-01T10:41:28.938Z,4.10
2022-11-01T10:44:00.944Z,3.43
2022-11-01T10:46:32.927Z,3.60
2022-11-01T10:49:07.007Z,2.73
2022-11-01T10:51:35.714Z,3.10
2022-11-01T10:54:05.985Z,2.67
2022-11-01T10:56:37.662Z,3.77
2022-11-01T10:59:18.215Z,3.30
2022-11-01T11:01:45.749Z,2.50
2022-11-01T11:04:15.952Z,3.10
2022-11-01T11:06:43.753Z,2.87
2022-11-01T11:09:21.188Z,2.87
2022-11-01T11:11:49.737Z,3.17
2022-11-01T11:14:20.809Z,2.70
2022-11-01T11:16:52.807Z,3.40
2022-11-01T11:19:38.923Z,2.00
2022-11-01T11:22:08.374Z,2.90
2022-11-01T11:24:43.773Z,2.73
2022-11-01T11:27:28.358Z,2.83
2022-11-01T11:30:05.215Z,3.13
2022-11-01T11:32:40.223Z,2.47
2022-11-01T11:35:19.109Z,2.70
2022-11-01T11:38:14.334Z,3.00
2022-11-01T11:40:40.938Z,2.60
2022-11-01T11:43:24.037Z,2.83
2022-11-01T11:46:20.759Z,3.30
2022-11-01T11:48:52.516Z,2.73
2022-11-01T11:51:21.174Z,2.60
2022-11-01T11:54:14.894Z,2.73
2022-11-01T11:56:41.742Z,2.67
2022-11-01T11:59:29.248Z,1.70
2022-11-01T12:02:03.351Z,1.60
2022-11-01T12:04:41.675Z,2.03
2022-11-01T12:07:22.754Z,2.27
2022-11-01T12:09:49.403Z,1.47
2022-11-01T12:12:35.040Z,2.17
2022-11-01T12:15:03.959Z,2.30
2022-11-01T12:17:46.872Z,2.30
2022-11-01T12:20:18.446Z,2.00
2022-11-01T12:23:25.004Z,2.07
2022-11-01T12:25:52.997Z,2.00
2022-11-01T12:28:41.660Z,1.77
2022-11-01T12:31:18.326Z,1.47
2022-11-01T12:34:16.154Z,1.80
2022-11-01T12:37:12.584Z,1.90
2022-11-01T12:39:57.100Z,1.90
2022-11-01T12:42:40.104Z,1.70
2022-11-01T12:45:28.438Z,1.70
2022-11-01T12:48:02.273Z,1.90
2022-11-01T12:50:44.955Z,1.70
2022-11-01T12:53:27.705Z,1.47
2022-11-01T12:55:58.024Z,1.90
2022-11-01T12:58:28.804Z,1.60
2022-11-01T13:01:31.433Z,1.70
2022-11-01T13:04:04.254Z,1.50
2022-11-01T13:06:39.970Z,1.97
2022-11-01T13:09:09.961Z,1.53
2022-11-01T13:11:53.352Z,1.90
2022-11-01T13:14:38.171Z,1.80
2022-11-01T13:17:24.335Z,1.50
2022-11-01T13:19:57.047Z,1.43
2022-11-01T13:22:42.078Z,1.80
2022-11-01T13:25:25.219Z,1.30
2022-11-01T13:28:15.826Z,1.43
2022-11-01T13:30:53.556Z,1.17
2022-11-01T13:33:45.745Z,1.03
2022-11-01T13:36:45.267Z,1.10
2022-11-01T13:39:40.527Z,1.47
2022-11-01T13:42:16.255Z,1.47
2022-11-01T13:44:52.092Z,1.40
2022-11-01T13:47:58.807Z,1.33
2022-11-01T13:50:59.984Z,1.30
2022-11-01T13:53:52.500Z,1.70
2022-11-01T13:56:26.642Z,1.50
2022-11-01T13:58:53.516Z,2.17
2022-11-01T14:01:40.818Z,1.40
2022-11-01T14:04:23.165Z,1.50
2022-11-01T14:07:14.333Z,1.70
2022-11-01T14:09:50.160Z,1.60
2022-11-01T14:12:30.338Z,1.43
2022-11-01T14:15:15.604Z,1.67
2022-11-01T14:18:10.970Z,1.73
2022-11-01T14:20:47.656Z,1.67
2022-11-01T14:23:29.332Z,2.63
2022-11-01T14:26:24.830Z,2.30
2022-11-01T14:28:56.897Z,2.10
2022-11-01T14:31:27.044Z,1.83
2022-11-01T14:33:59.934Z,1.40
2022-11-01T14:36:30.893Z,1.80
2022-11-01T14:39:21.185Z,1.87
2022-11-01T14:41:55.222Z,1.63
2022-11-01T14:44:31.832Z,1.47
2022-11-01T14:47:01.580Z,1.90
2022-11-01T14:49:39.947Z,1.63
2022-11-01T14:52:19.071Z,2.37
2022-11-01T14:54:56.492Z,2.20
2022-11-01T14:57:29.356Z,1.50
2022-11-01T14:59:58.155Z,1.40
2022-11-01T15:02:28.101Z,1.60
2022-11-01T15:05:00.221Z,1.40
2022-11-01T15:07:31.277Z,1.60
2022-11-01T15:10:17.134Z,2.10
2022-11-01T15:12:48.463Z,1.83
2022-11-01T15:15:21.115Z,1.30
2022-11-01T15:18:12.417Z,1.30
2022-11-01T15:20:42.506Z,1.93
2022-11-01T15:23:18.431Z,1.83
2022-11-01T15:25:55.162Z,1.90
2022-11-01T15:28:25.075Z,1.63
2022-11-01T15:31:01.133Z,2.10
2022-11-01T15:33:32.573Z,1.73
2022-11-01T15:36:05.233Z,1.80
2022-11-01T15:38:35.584Z,1.80
2022-11-01T15:41:35.092Z,1.97
2022-11-01T15:44:07.784Z,2.30
2022-11-01T15:46:40.664Z,1.97
2022-11-01T15:49:17.596Z,2.43
2022-11-01T15:51:58.067Z,2.20
2022-11-01T15:54:41.008Z,1.90
2022-11-01T15:57:46.484Z,3.93
2022-11-01T16:00:18.055Z,2.70
2022-11-01T16:02:50.896Z,2.13
2022-11-01T16:05:20.732Z,2.33
2022-11-01T16:07:47.758Z,2.60
2022-11-01T16:10:28.870Z,2.40
2022-11-01T16:12:58.044Z,2.73
2022-11-01T16:15:33.188Z,2.33
2022-11-01T16:18:02.280Z,2.13
2022-11-01T16:20:31.686Z,1.73
2022-11-01T16:23:09.085Z,2.63
2022-11-01T16:25:38.247Z,2.23
2022-11-01T16:28:11.117Z,2.30
2022-11-01T16:30:46.383Z,2.33
2022-11-01T16:33:28.176Z,2.97
2022-11-01T16:36:00.753Z,2.10
2022-11-01T16:38:33.448Z,3.47
2022-11-01T16:41:21.375Z,4.63
2022-11-01T16:43:53.219Z,4.00
2022-11-01T16:46:21.471Z,4.70
2022-11-01T16:48:56.743Z,4.47
2022-11-01T16:51:26.783Z,4.43
2022-11-01T16:53:55.097Z,4.77
2022-11-01T16:56:36.703Z,4.97
2022-11-01T16:59:25.542Z,5.10
2022-11-01T17:01:55.682Z,5.30
2022-11-01T17:04:22.892Z,4.87
2022-11-01T17:06:50.599Z,4.17
2022-11-01T17:09:19.569Z,5.70
2022-11-01T17:11:51.088Z,5.20
2022-11-01T17:14:19.606Z,5.87
2022-11-01T17:16:47.797Z,5.20
2022-11-01T17:19:21.758Z,5.10
2022-11-01T17:21:50.369Z,4.80
2022-11-01T17:24:20.308Z,4.50
2022-11-01T17:26:48.499Z,4.60
2022-11-01T17:29:15.201Z,4.97
2022-11-01T17:31:41.896Z,6.20
2022-11-01T17:34:08.979Z,6.10
2022-11-01T17:36:37.741Z,7.30
2022-11-01T17:39:04.590Z,5.03
2022-11-01T17:41:31.282Z,4.87
2022-11-01T17:43:58.036Z,5.23
2022-11-01T17:46:26.139Z,4.37
2022-11-01T17:48:52.820Z,5.03
2022-11-01T17:51:20.013Z,3.90
2022-11-01T17:53:46.822Z,4.30
2022-11-01T17:56:13.469Z,4.10
2022-11-01T17:58:40.137Z,4.40
2022-11-01T18:01:08.245Z,4.87
2022-11-01T18:03:34.990Z,4.43
2022-11-01T18:06:01.902Z,4.00
2022-11-01T18:08:33.259Z,4.37
2022-11-01T18:11:09.136Z,3.97
2022-11-01T18:13:46.367Z,4.80
2022-11-01T18:16:21.374Z,5.00
2022-11-01T18:19:08.831Z,4.87
2022-11-01T18:22:01.470Z,4.20
2022-11-01T18:24:50.242Z,3.47
2022-11-01T18:27:23.498Z,4.20
2022-11-01T18:29:52.926Z,4.83
2022-11-01T18:32:19.563Z,4.10
2022-11-01T18:37:50.382Z,6.37
2022-11-01T18:40:25.575Z,6.63
2022-11-01T18:42:53.648Z,6.00
2022-11-01T18:45:30.432Z,5.40
2022-11-01T18:48:11.704Z,5.53
2022-11-01T18:50:38.574Z,6.40
2022-11-01T18:53:17.684Z,5.37
2022-11-01T18:55:47.580Z,4.80
2022-11-01T18:58:26.070Z,3.80
2022-11-01T19:01:05.654Z,4.10
2022-11-01T19:03:32.423Z,3.97
2022-11-01T19:06:20.235Z,3.53
2022-11-01T19:08:55.357Z,3.20
2022-11-01T19:11:23.302Z,3.33
2022-11-01T19:13:50.804Z,3.50
2022-11-01T19:16:19.975Z,3.90
2022-11-01T19:18:49.688Z,3.73
2022-11-01T19:21:19.807Z,3.20
2022-11-01T19:23:48.494Z,3.30
2022-11-01T19:26:41.018Z,3.07
2022-11-01T19:29:18.442Z,3.27
2022-11-01T19:31:48.387Z,3.23
2022-11-01T19:34:25.245Z,3.20
2022-11-01T19:36:52.783Z,4.83
2022-11-01T19:39:34.181Z,5.40
2022-11-01T19:42:11.990Z,8.73
2022-11-01T19:44:38.668Z,5.37
2022-11-01T19:47:30.037Z,4.77
2022-11-01T19:49:56.789Z,3.90
2022-11-01T19:52:37.762Z,3.50
2022-11-01T19:55:36.618Z,4.13
2022-11-01T19:58:22.457Z,4.00
2022-11-01T20:00:49.651Z,3.30
2022-11-01T20:03:30.731Z,4.60
2022-11-01T20:05:57.548Z,2.87
2022-11-01T20:08:34.616Z,3.60
2022-11-01T20:11:01.589Z,3.10
2022-11-01T20:13:28.265Z,3.07
2022-11-01T20:15:54.985Z,3.20
2022-11-01T20:18:21.642Z,4.00
2022-11-01T20:20:48.405Z,3.70
2022-11-01T20:23:30.589Z,3.20
2022-11-01T20:25:58.220Z,4.00
2022-11-01T20:28:24.983Z,3.93
2022-11-01T20:30:52.079Z,5.47
2022-11-01T20:33:18.994Z,3.70
2022-11-01T20:35:45.757Z,3.97
2022-11-01T20:38:13.228Z,4.13
2022-11-01T20:40:40.221Z,3.73
2022-11-01T20:43:07.372Z,4.00
2022-11-01T20:45:34.896Z,3.37
2022-11-01T20:48:02.380Z,4.10
2022-11-01T20:50:29.385Z,3.13
2022-11-01T20:52:56.064Z,4.43
2022-11-01T20:55:22.914Z,4.30
2022-11-01T20:57:50.528Z,4.47
2022-11-01T21:00:18.907Z,4.10
2022-11-01T21:02:46.509Z,4.47
2022-11-01T21:05:28.223Z,5.07
2022-11-01T21:08:22.647Z,4.30
2022-11-01T21:10:55.011Z,4.47
2022-11-01T21:13:39.050Z,4.53
2022-11-01T21:16:32.540Z,4.23
2022-11-01T21:19:04.439Z,4.10
2022-11-01T21:21:32.847Z,5.60
2022-11-01T21:24:00.823Z,4.83
2022-11-01T21:26:31.958Z,4.87
2022-11-01T21:29:03.107Z,4.80
2022-11-01T21:31:32.586Z,4.57
2022-11-01T21:34:04.375Z,4.97
2022-11-01T21:36:43.403Z,4.43
2022-11-01T21:39:13.963Z,4.40
2022-11-01T21:41:57.029Z,4.87
2022-11-01T21:44:43.349Z,5.57
2022-11-01T21:47:22.021Z,6.50
2022-11-01T21:49:49.722Z,6.57
2022-11-01T21:52:19.136Z,6.43
2022-11-01T21:54:46.703Z,4.20
2022-11-01T21:57:14.204Z,4.60
2022-11-01T21:59:41.752Z,4.30
2022-11-01T22:02:11.487Z,4.13
2022-11-01T22:04:38.699Z,4.07
2022-11-01T22:07:06.984Z,4.20
2022-11-01T22:09:34.423Z,4.27
2022-11-01T22:12:01.370Z,4.23
2022-11-01T22:14:28.158Z,4.23
2022-11-01T22:16:54.794Z,5.10
2022-11-01T22:19:21.446Z,4.57
2022-11-01T22:21:48.088Z,6.03
2022-11-01T22:24:14.799Z,16.07
2022-11-01T22:26:41.452Z,8.83
2022-11-01T22:29:08.188Z,9.50
2022-11-01T22:31:34.818Z,10.80
2022-11-01T22:34:01.941Z,9.17
2022-11-01T22:36:30.814Z,9.07
2022-11-01T22:39:01.890Z,8.47
2022-11-01T22:41:33.962Z,8.40
2022-11-01T22:44:10.416Z,8.00
2022-11-01T22:46:58.659Z,6.90
2022-11-01T22:49:31.144Z,6.57
2022-11-01T22:52:00.107Z,5.17
2022-11-01T22:54:38.527Z,6.03
2022-11-01T22:57:08.051Z,4.90
2022-11-01T22:59:39.732Z,5.33
2022-11-01T23:02:27.623Z,4.27
2022-11-01T23:05:23.824Z,3.83
2022-11-01T23:07:53.595Z,3.77
2022-11-01T23:10:24.722Z,3.50
2022-11-01T23:13:14.416Z,4.83
2022-11-01T23:15:41.051Z,7.23
2022-11-01T23:18:26.451Z,7.40
2022-11-01T23:21:06.342Z,6.00
2022-11-01T23:23:36.243Z,6.40
2022-11-01T23:26:03.683Z,5.40
2022-11-01T23:28:34.903Z,4.87
2022-11-01T23:31:05.554Z,4.20
2022-11-01T23:33:41.390Z,4.20
2022-11-01T23:36:32.059Z,4.80
2022-11-01T23:39:12.016Z,4.63
2022-11-01T23:41:50.651Z,4.90
2022-11-01T23:44:23.190Z,5.97
2022-11-01T23:46:50.012Z,4.63
2022-11-01T23:49:23.467Z,6.67
2022-11-01T23:51:51.086Z,6.23
2022-11-01T23:54:30.810Z,5.83
2022-11-01T23:56:57.487Z,5.57
2022-11-01T23:59:24.166Z,4.73
